createdAt,value
2022-11-14T00:01:09.743Z,28.00
2022-11-14T00:03:36.820Z,27.90
2022-11-14T00:06:07.262Z,27.90
2022-11-14T00:08:34.867Z,28.20
2022-11-14T00:11:03.047Z,28.50
2022-11-14T00:13:30.018Z,28.30
2022-11-14T00:15:56.948Z,27.80
2022-11-14T00:18:24.301Z,27.80
2022-11-14T00:20:52.638Z,27.80
2022-11-14T00:23:21.230Z,27.80
2022-11-14T00:25:48.531Z,28.20
2022-11-14T00:28:15.830Z,27.60
2022-11-14T00:30:46.642Z,27.70
2022-11-14T00:33:18.747Z,27.30
2022-11-14T00:35:54.862Z,27.20
2022-11-14T00:38:22.519Z,26.80
2022-11-14T00:40:49.724Z,27.60
2022-11-14T00:43:16.929Z,28.00
2022-11-14T00:45:45.420Z,28.40
2022-11-14T00:48:12.368Z,28.70
2022-11-14T00:50:39.648Z,28.90
2022-11-14T00:53:06.640Z,28.30
2022-11-14T00:55:33.570Z,28.50
2022-11-14T00:58:00.556Z,28.30
2022-11-14T01:00:27.515Z,27.90
2022-11-14T01:02:56.986Z,28.00
2022-11-14T01:05:25.551Z,28.20
2022-11-14T01:07:52.526Z,27.80
2022-11-14T01:10:21.038Z,28.30
2022-11-14T01:12:48.112Z,28.10
2022-11-14T01:15:15.127Z,27.50
2022-11-14T01:17:42.165Z,27.50
2022-11-14T01:20:09.378Z,28.60
2022-11-14T01:22:36.313Z,28.90
2022-11-14T01:25:03.658Z,28.90
2022-11-14T01:27:33.723Z,29.30
2022-11-14T01:30:00.724Z,29.20
2022-11-14T01:32:28.083Z,29.00
2022-11-14T01:34:55.071Z,28.90
2022-11-14T01:37:22.455Z,28.90
2022-11-14T01:39:50.255Z,28.60
2022-11-14T01:42:17.793Z,28.70
2022-11-14T01:44:52.901Z,28.20
2022-11-14T01:47:32.493Z,28.70
2022-11-14T01:50:02.233Z,28.60
2022-11-14T01:52:39.028Z,28.30
2022-11-14T01:55:08.847Z,28.00
2022-11-14T01:57:44.240Z,27.60
2022-11-14T02:00:12.805Z,27.90
2022-11-14T02:02:39.770Z,27.90
2022-11-14T02:05:10.616Z,27.60
2022-11-14T02:07:41.085Z,27.70
2022-11-14T02:10:11.063Z,27.90
2022-11-14T02:12:38.574Z,27.40
2022-11-14T02:15:06.047Z,27.10
2022-11-14T02:17:33.107Z,27.40
2022-11-14T02:20:10.574Z,27.50
2022-11-14T02:22:38.899Z,27.80
2022-11-14T02:25:07.255Z,27.60
2022-11-14T02:27:35.196Z,27.60
2022-11-14T02:30:08.207Z,27.10
2022-11-14T02:32:56.917Z,26.30
2022-11-14T02:35:22.411Z,26.90
2022-11-14T02:37:49.414Z,26.60
2022-11-14T02:40:16.649Z,26.70
2022-11-14T02:42:43.794Z,27.00
2022-11-14T02:45:12.411Z,26.90
2022-11-14T02:47:39.389Z,26.70
2022-11-14T02:50:06.579Z,26.90
2022-11-14T02:52:33.523Z,26.60
2022-11-14T02:55:00.519Z,26.20
2022-11-14T02:57:27.488Z,26.20
2022-11-14T02:59:54.477Z,26.10
2022-11-14T03:02:21.455Z,26.00
2022-11-14T03:04:48.449Z,26.00
2022-11-14T03:07:15.456Z,26.20
2022-11-14T03:09:42.451Z,25.80
2022-11-14T03:12:09.566Z,25.80
2022-11-14T03:14:36.542Z,25.60
2022-11-14T03:17:03.741Z,26.00
2022-11-14T03:19:30.707Z,26.50
2022-11-14T03:21:57.641Z,26.30
2022-11-14T03:24:24.594Z,26.80
2022-11-14T03:26:51.733Z,27.30
2022-11-14T03:29:18.677Z,27.20
2022-11-14T03:31:45.628Z,27.20
2022-11-14T03:34:12.876Z,27.30
2022-11-14T03:36:40.136Z,27.40
2022-11-14T03:39:07.452Z,27.50
2022-11-14T03:41:34.463Z,27.10
2022-11-14T03:44:01.608Z,27.50
2022-11-14T03:46:28.588Z,27.90
2022-11-14T03:48:55.685Z,27.80
2022-11-14T03:51:22.739Z,28.10
2022-11-14T03:53:49.716Z,27.80
2022-11-14T03:56:16.665Z,27.30
2022-11-14T03:58:43.623Z,27.00
2022-11-14T04:01:10.793Z,27.50
2022-11-14T04:03:37.819Z,27.30
2022-11-14T04:06:04.890Z,27.20
2022-11-14T04:08:33.307Z,27.30
2022-11-14T04:11:00.535Z,27.90
2022-11-14T04:13:27.532Z,27.50
2022-11-14T04:15:56.187Z,27.50
2022-11-14T04:18:23.932Z,27.50
2022-11-14T04:20:51.245Z,27.00
2022-11-14T04:23:18.784Z,26.50
2022-11-14T04:25:46.625Z,25.90
2022-11-14T04:28:14.379Z,26.10
2022-11-14T04:30:41.728Z,26.20
2022-11-14T04:33:08.692Z,26.70
2022-11-14T04:35:35.695Z,25.80
2022-11-14T04:38:03.168Z,25.60
2022-11-14T04:40:30.277Z,25.60
2022-11-14T04:42:57.328Z,25.70
2022-11-14T04:45:24.446Z,25.70
2022-11-14T04:47:51.432Z,26.40
2022-11-14T04:50:18.593Z,26.60
2022-11-14T04:52:45.579Z,26.40
2022-11-14T04:55:12.559Z,26.10
2022-11-14T04:57:39.569Z,26.40
2022-11-14T05:00:07.371Z,26.30
2022-11-14T05:02:34.327Z,26.30
2022-11-14T05:05:01.275Z,26.20
2022-11-14T05:07:28.395Z,26.80
2022-11-14T05:09:55.361Z,27.00
2022-11-14T05:12:22.336Z,27.50
2022-11-14T05:14:49.342Z,27.60
2022-11-14T05:17:16.266Z,27.60
2022-11-14T05:19:43.246Z,28.80
2022-11-14T05:22:10.289Z,28.30
2022-11-14T05:24:37.218Z,27.50
2022-11-14T05:27:04.623Z,27.10
2022-11-14T05:29:31.725Z,26.70
2022-11-14T05:31:58.679Z,26.10
2022-11-14T05:34:25.654Z,25.70
2022-11-14T05:36:52.739Z,25.20
2022-11-14T05:39:19.740Z,25.10
2022-11-14T05:41:46.744Z,25.80
2022-11-14T05:44:13.770Z,26.20
2022-11-14T05:46:40.819Z,26.30
2022-11-14T05:49:07.763Z,26.00
2022-11-14T05:51:34.748Z,26.40
2022-11-14T05:54:01.684Z,26.70
2022-11-14T05:56:28.626Z,26.20
2022-11-14T05:58:55.589Z,26.20
2022-11-14T06:01:22.596Z,25.80
2022-11-14T06:03:49.608Z,25.90
2022-11-14T06:06:19.811Z,25.80
2022-11-14T06:08:47.109Z,25.80
2022-11-14T06:11:17.153Z,25.80
2022-11-14T06:13:44.643Z,26.20
2022-11-14T06:16:14.378Z,25.80
2022-11-14T06:18:41.810Z,25.90
2022-11-14T06:21:15.462Z,25.70
2022-11-14T06:23:43.092Z,25.70
2022-11-14T06:26:20.774Z,25.90
2022-11-14T06:28:49.444Z,25.70
2022-11-14T06:31:16.967Z,25.60
2022-11-14T06:33:44.409Z,25.50
2022-11-14T06:36:12.305Z,25.80
2022-11-14T06:38:41.513Z,26.10
2022-11-14T06:41:19.850Z,25.90
2022-11-14T06:43:49.145Z,25.40
2022-11-14T06:46:18.708Z,26.30
2022-11-14T06:48:46.798Z,26.80
2022-11-14T06:51:15.256Z,26.90
2022-11-14T06:53:42.960Z,26.40
2022-11-14T06:56:15.712Z,26.20
2022-11-14T06:58:45.722Z,26.50
2022-11-14T07:01:15.210Z,26.10
2022-11-14T07:03:43.515Z,26.30
2022-11-14T07:06:18.652Z,26.30
2022-11-14T07:08:45.631Z,27.00
2022-11-14T07:11:23.898Z,26.70
2022-11-14T07:13:58.541Z,26.60
2022-11-14T07:16:29.795Z,26.10
2022-11-14T07:18:57.957Z,25.70
2022-11-14T07:21:26.372Z,25.70
2022-11-14T07:23:53.408Z,25.40
2022-11-14T07:26:20.321Z,25.00
2022-11-14T07:28:52.300Z,25.20
2022-11-14T07:31:21.294Z,25.80
2022-11-14T07:33:48.893Z,26.70
2022-11-14T07:36:16.998Z,26.60
2022-11-14T07:38:44.108Z,26.50
2022-11-14T07:41:14.099Z,26.30
2022-11-14T07:43:41.924Z,26.10
2022-11-14T07:46:12.287Z,26.40
2022-11-14T07:48:39.251Z,27.10
2022-11-14T07:51:09.578Z,26.70
2022-11-14T07:53:36.858Z,26.50
2022-11-14T07:56:11.366Z,26.30
2022-11-14T07:58:39.559Z,26.50
2022-11-14T08:01:08.242Z,26.20
2022-11-14T08:03:35.608Z,25.80
2022-11-14T08:06:11.742Z,26.40
2022-11-14T08:08:38.875Z,26.50
2022-11-14T08:11:06.265Z,26.40
2022-11-14T08:13:34.006Z,26.60
2022-11-14T08:16:11.980Z,26.80
2022-11-14T08:18:40.208Z,27.00
2022-11-14T08:21:07.671Z,27.30
2022-11-14T08:23:34.751Z,27.00
2022-11-14T08:26:01.725Z,26.70
2022-11-14T08:28:29.182Z,26.90
2022-11-14T08:31:04.235Z,27.20
2022-11-14T08:33:32.306Z,27.00
2022-11-14T08:36:03.556Z,26.90
2022-11-14T08:38:32.139Z,27.10
2022-11-14T08:41:01.241Z,27.00
2022-11-14T08:43:28.824Z,27.10
2022-11-14T08:46:01.753Z,27.00
2022-11-14T08:48:30.434Z,27.00
2022-11-14T08:50:58.314Z,27.20
2022-11-14T08:53:25.494Z,27.70
2022-11-14T08:55:52.469Z,27.90
2022-11-14T08:58:19.415Z,27.30
2022-11-14T09:00:46.402Z,27.20
2022-11-14T09:03:16.170Z,27.00
2022-11-14T09:05:43.476Z,26.70
2022-11-14T09:08:10.435Z,26.40
2022-11-14T09:10:38.153Z,26.70
2022-11-14T09:13:05.193Z,26.40
2022-11-14T09:15:33.865Z,26.50
2022-11-14T09:18:00.934Z,26.10
2022-11-14T09:20:33.237Z,26.50
2022-11-14T09:23:04.045Z,26.10
2022-11-14T09:25:31.404Z,26.00
2022-11-14T09:27:58.923Z,26.00
2022-11-14T09:30:26.031Z,25.90
2022-11-14T09:32:52.979Z,25.50
2022-11-14T09:35:20.002Z,25.90
2022-11-14T09:37:46.980Z,26.00
2022-11-14T09:40:14.586Z,25.90
2022-11-14T09:43:22.579Z,25.50
2022-11-14T09:45:53.185Z,25.50
2022-11-14T09:48:29.963Z,25.90
2022-11-14T09:51:44.440Z,25.80
2022-11-14T09:54:25.183Z,25.80
2022-11-14T09:56:52.546Z,25.70
2022-11-14T09:59:19.605Z,25.10
2022-11-14T10:02:08.255Z,25.30
2022-11-14T10:04:58.348Z,25.40
2022-11-14T10:07:58.589Z,25.70
2022-11-14T10:10:52.248Z,26.20
2022-11-14T10:13:31.457Z,26.30
2022-11-14T10:16:36.847Z,26.70
2022-11-14T10:19:17.664Z,26.30
2022-11-14T10:22:15.272Z,25.80
2022-11-14T10:25:03.189Z,25.50
2022-11-14T10:27:38.532Z,25.60
2022-11-14T10:30:17.259Z,26.10
2022-11-14T10:33:35.377Z,26.40
2022-11-14T10:36:22.916Z,26.20
2022-11-14T10:39:06.346Z,25.80
2022-11-14T10:41:55.508Z,25.70
2022-11-14T10:44:27.001Z,25.30
2022-11-14T10:47:02.782Z,25.60
2022-11-14T10:49:32.869Z,26.20
2022-11-14T10:52:05.270Z,26.10
2022-11-14T10:54:50.475Z,26.00
2022-11-14T10:57:22.255Z,25.50
2022-11-14T10:59:49.354Z,25.70
2022-11-14T11:02:16.467Z,25.60
2022-11-14T11:04:45.221Z,25.60
2022-11-14T11:07:32.216Z,25.80
2022-11-14T11:10:21.468Z,26.20
2022-11-14T11:12:51.426Z,26.10
2022-11-14T11:15:20.488Z,25.60
2022-11-14T11:17:58.810Z,25.00
2022-11-14T11:20:38.095Z,25.60
2022-11-14T11:23:25.609Z,25.50
2022-11-14T11:26:09.227Z,26.10
2022-11-14T11:28:37.465Z,26.00
2022-11-14T11:31:07.795Z,26.00
2022-11-14T11:33:37.505Z,26.20
2022-11-14T11:36:04.687Z,26.10
2022-11-14T11:38:34.008Z,25.90
2022-11-14T11:41:15.626Z,26.80
2022-11-14T11:44:02.814Z,27.20
2022-11-14T11:46:49.168Z,26.80
2022-11-14T11:49:28.340Z,26.70
2022-11-14T11:51:57.289Z,26.50
2022-11-14T11:55:14.182Z,26.30
2022-11-14T11:58:10.066Z,26.30
2022-11-14T12:00:37.139Z,26.50
2022-11-14T12:03:10.085Z,26.50
2022-11-14T12:05:45.885Z,26.30
2022-11-14T12:08:27.018Z,26.50
2022-11-14T12:10:54.229Z,26.80
2022-11-14T12:13:40.050Z,26.50
2022-11-14T12:16:13.182Z,26.50
2022-11-14T12:18:58.649Z,26.20
2022-11-14T12:21:49.525Z,26.10
2022-11-14T12:24:52.094Z,25.90
2022-11-14T12:27:56.389Z,26.10
2022-11-14T12:30:25.208Z,26.10
2022-11-14T12:33:01.352Z,26.20
2022-11-14T12:35:33.074Z,25.80
2022-11-14T12:38:03.213Z,26.00
2022-11-14T12:40:36.052Z,25.70
2022-11-14T12:43:04.105Z,25.60
2022-11-14T12:45:42.810Z,25.80
2022-11-14T12:48:29.282Z,25.20
2022-11-14T12:50:58.711Z,25.00
2022-11-14T12:53:37.408Z,24.80
2022-11-14T12:56:19.224Z,24.60
2022-11-14T12:58:52.935Z,24.50
2022-11-14T13:01:28.603Z,24.30
2022-11-14T13:04:28.431Z,24.00
2022-11-14T13:07:13.901Z,23.70
2022-11-14T13:10:35.035Z,23.60
2022-11-14T13:13:27.752Z,23.30
2022-11-14T13:16:21.186Z,23.40
2022-11-14T13:19:30.546Z,23.20
2022-11-14T13:22:12.442Z,23.50
2022-11-14T13:25:01.419Z,23.60
2022-11-14T13:28:00.664Z,23.20
2022-11-14T13:30:59.975Z,23.10
2022-11-14T13:33:48.638Z,22.90
2022-11-14T13:36:27.331Z,22.50
2022-11-14T13:39:27.382Z,22.80
2022-11-14T13:42:28.014Z,22.90
2022-11-14T13:45:14.900Z,22.90
2022-11-14T13:48:29.019Z,22.80
2022-11-14T13:51:28.920Z,22.70
2022-11-14T13:53:54.104Z,22.80
2022-11-14T13:56:34.609Z,23.10
2022-11-14T13:59:07.387Z,23.60
2022-11-14T14:01:37.163Z,23.50
2022-11-14T14:04:36.208Z,23.30
2022-11-14T14:07:32.778Z,23.30
2022-11-14T14:10:40.690Z,23.00
2022-11-14T14:13:32.595Z,23.30
2022-11-14T14:16:12.097Z,24.10
2022-11-14T14:18:55.987Z,24.40
2022-11-14T14:21:24.925Z,24.20
2022-11-14T14:24:16.678Z,23.90
2022-11-14T14:26:55.658Z,24.10
2022-11-14T14:29:37.172Z,24.00
2022-11-14T14:32:13.679Z,24.10
2022-11-14T14:34:42.229Z,24.40
2022-11-14T14:37:50.189Z,24.50
2022-11-14T14:40:25.023Z,24.30
2022-11-14T14:42:52.330Z,24.10
2022-11-14T14:45:21.511Z,23.90
2022-11-14T14:48:01.324Z,24.40
2022-11-14T14:50:40.255Z,24.80
2022-11-14T14:53:08.287Z,24.70
2022-11-14T14:55:36.669Z,24.40
2022-11-14T14:58:22.877Z,24.70
2022-11-14T15:01:11.414Z,24.90
2022-11-14T15:03:46.684Z,25.00
2022-11-14T15:06:32.704Z,25.40
2022-11-14T15:09:17.168Z,25.60
2022-11-14T15:11:46.499Z,25.60
2022-11-14T15:14:19.528Z,25.50
2022-11-14T15:16:50.160Z,25.70
2022-11-14T15:19:25.087Z,26.00
2022-11-14T15:22:16.133Z,26.40
2022-11-14T15:24:43.538Z,25.80
2022-11-14T15:27:20.450Z,25.70
2022-11-14T15:30:02.935Z,26.10
2022-11-14T15:32:30.037Z,26.30
2022-11-14T15:35:20.187Z,26.10
2022-11-14T15:38:43.688Z,26.00
2022-11-14T15:41:25.341Z,26.00
2022-11-14T15:43:53.807Z,25.90
2022-11-14T15:46:43.587Z,25.60
2022-11-14T15:49:25.583Z,25.20
2022-11-14T15:52:02.450Z,25.20
2022-11-14T15:54:31.473Z,25.20
2022-11-14T15:57:09.612Z,25.10
2022-11-14T15:59:36.666Z,25.40
2022-11-14T16:02:22.448Z,25.70
2022-11-14T16:04:52.220Z,25.70
2022-11-14T16:07:19.734Z,25.40
2022-11-14T16:09:46.877Z,25.40
2022-11-14T16:12:14.042Z,25.60
2022-11-14T16:14:41.442Z,25.60
2022-11-14T16:17:17.314Z,25.30
2022-11-14T16:19:44.760Z,25.20
2022-11-14T16:22:18.248Z,25.20
2022-11-14T16:24:45.472Z,25.20
2022-11-14T16:27:12.575Z,25.40
2022-11-14T16:29:39.637Z,25.30
2022-11-14T16:32:08.946Z,25.20
2022-11-14T16:34:35.919Z,25.00
2022-11-14T16:37:03.650Z,25.20
2022-11-14T16:39:32.023Z,25.60
2022-11-14T16:42:02.549Z,26.20
2022-11-14T16:44:30.134Z,26.70
2022-11-14T16:46:57.437Z,27.00
2022-11-14T16:49:25.352Z,27.30
2022-11-14T16:51:52.929Z,27.00
2022-11-14T16:54:20.653Z,27.10
2022-11-14T16:56:48.610Z,27.10
2022-11-14T16:59:15.740Z,27.40
2022-11-14T17:01:42.884Z,27.30
2022-11-14T17:04:09.919Z,27.30
2022-11-14T17:06:37.012Z,27.40
2022-11-14T17:09:04.088Z,27.20
2022-11-14T17:11:31.101Z,27.80
2022-11-14T17:13:59.003Z,27.80
2022-11-14T17:16:26.108Z,27.40
2022-11-14T17:18:54.721Z,26.60
2022-11-14T17:21:23.176Z,26.40
2022-11-14T17:23:57.728Z,27.70
2022-11-14T17:26:24.765Z,27.90
2022-11-14T17:28:51.987Z,27.70
2022-11-14T17:31:19.318Z,27.90
2022-11-14T17:33:54.702Z,28.00
2022-11-14T17:36:22.957Z,28.50
2022-11-14T17:38:49.997Z,28.80
2022-11-14T17:41:17.145Z,28.70
2022-11-14T17:43:44.935Z,28.20
2022-11-14T17:46:16.119Z,27.90
2022-11-14T17:48:44.745Z,27.40
2022-11-14T17:51:13.665Z,27.20
2022-11-14T17:53:41.192Z,27.40
2022-11-14T17:56:15.457Z,27.30
2022-11-14T17:58:42.992Z,27.90
2022-11-14T18:01:12.274Z,28.10
2022-11-14T18:03:39.378Z,28.00
2022-11-14T18:06:14.133Z,27.40
2022-11-14T18:08:41.169Z,27.50
2022-11-14T18:11:11.223Z,28.20
2022-11-14T18:13:39.290Z,28.40
2022-11-14T18:16:44.436Z,28.70
2022-11-14T18:19:14.271Z,28.80
2022-11-14T18:21:43.333Z,28.90
2022-11-14T18:24:13.579Z,28.90
2022-11-14T18:26:41.214Z,28.40
2022-11-14T18:29:08.439Z,27.50
2022-11-14T18:31:35.815Z,27.50
2022-11-14T18:34:02.975Z,27.60
2022-11-14T18:36:30.058Z,27.90
2022-11-14T18:38:58.147Z,28.40
2022-11-14T18:41:25.234Z,28.40
2022-11-14T18:43:56.098Z,28.60
2022-11-14T18:46:25.110Z,27.80
2022-11-14T18:48:59.932Z,27.50
2022-11-14T18:51:29.046Z,27.30
2022-11-14T18:53:59.368Z,26.80
2022-11-14T18:56:26.906Z,26.60
2022-11-14T18:58:56.232Z,26.40
2022-11-14T19:01:26.584Z,26.20
2022-11-14T19:03:56.770Z,26.50
2022-11-14T19:06:23.915Z,26.20
2022-11-14T19:08:51.147Z,25.60
2022-11-14T19:11:37.318Z,25.40
2022-11-14T19:14:06.477Z,25.20
2022-11-14T19:16:35.214Z,24.70
2022-11-14T19:19:02.749Z,24.50
2022-11-14T19:21:30.021Z,24.40
2022-11-14T19:23:59.646Z,24.50
2022-11-14T19:26:27.993Z,24.50
2022-11-14T19:28:55.753Z,24.40
2022-11-14T19:31:23.452Z,24.10
2022-11-14T19:33:50.568Z,24.10
2022-11-14T19:36:44.990Z,24.10
2022-11-14T19:39:07.576Z,24.10
2022-11-14T19:41:34.604Z,24.10
2022-11-14T19:44:02.948Z,24.20
2022-11-14T19:46:30.111Z,24.20
2022-11-14T19:49:01.547Z,24.30
2022-11-14T19:51:29.986Z,24.20
2022-11-14T19:53:59.112Z,24.20
2022-11-14T19:56:26.666Z,24.40
2022-11-14T19:58:56.382Z,24.50
2022-11-14T20:01:25.703Z,25.10
2022-11-14T20:03:55.966Z,24.70
2022-11-14T20:06:26.347Z,24.80
2022-11-14T20:08:54.781Z,24.80
2022-11-14T20:11:22.677Z,24.60
2022-11-14T20:13:49.878Z,24.60
2022-11-14T20:16:21.235Z,24.50
2022-11-14T20:18:53.257Z,24.40
2022-11-14T20:21:24.637Z,24.50
2022-11-14T20:23:52.214Z,24.70
2022-11-14T20:26:20.243Z,24.60
2022-11-14T20:28:49.235Z,24.80
2022-11-14T20:31:18.865Z,24.70
2022-11-14T20:33:47.836Z,24.60
2022-11-14T20:36:21.852Z,24.70
2022-11-14T20:38:48.904Z,24.60
2022-11-14T20:41:16.057Z,24.80
2022-11-14T20:43:43.724Z,24.70
2022-11-14T20:46:13.331Z,24.90
2022-11-14T20:48:41.541Z,24.90
2022-11-14T20:51:12.863Z,24.90
2022-11-14T20:53:40.287Z,24.80
2022-11-14T20:56:08.165Z,25.00
2022-11-14T20:58:35.208Z,24.80
2022-11-14T21:01:02.302Z,24.60
2022-11-14T21:03:30.031Z,24.60
2022-11-14T21:05:57.835Z,24.70
2022-11-14T21:08:25.022Z,24.70
2022-11-14T21:10:59.347Z,24.90
2022-11-14T21:13:45.396Z,24.80
2022-11-14T21:16:17.896Z,24.60
2022-11-14T21:18:48.123Z,24.50
2022-11-14T21:21:23.769Z,24.50
2022-11-14T21:23:51.532Z,24.60
2022-11-14T21:26:27.003Z,24.80
2022-11-14T21:28:57.196Z,25.00
2022-11-14T21:31:27.481Z,24.80
2022-11-14T21:33:58.844Z,24.90
2022-11-14T21:36:44.309Z,25.00
2022-11-14T21:39:15.272Z,25.10
2022-11-14T21:41:44.240Z,25.10
2022-11-14T21:44:14.646Z,25.20
2022-11-14T21:46:42.098Z,25.20
2022-11-14T21:49:09.978Z,25.40
2022-11-14T21:51:36.986Z,25.60
2022-11-14T21:54:05.233Z,25.60
2022-11-14T21:56:34.429Z,25.50
2022-11-14T21:59:16.270Z,25.60
2022-11-14T22:02:05.034Z,25.60
2022-11-14T22:04:32.840Z,25.60
2022-11-14T22:07:04.262Z,25.60
2022-11-14T22:09:32.148Z,25.60
2022-11-14T22:11:59.898Z,26.10
2022-11-14T22:14:27.367Z,26.50
2022-11-14T22:16:54.410Z,27.50
2022-11-14T22:19:21.800Z,27.40
2022-11-14T22:21:48.750Z,27.50
2022-11-14T22:24:15.744Z,27.60
2022-11-14T22:26:42.805Z,27.90
2022-11-14T22:29:09.856Z,27.90
2022-11-14T22:31:38.281Z,27.70
2022-11-14T22:34:05.804Z,27.50
2022-11-14T22:36:33.539Z,27.60
2022-11-14T22:39:00.581Z,28.00
2022-11-14T22:41:33.225Z,27.90
2022-11-14T22:44:01.818Z,27.90
2022-11-14T22:46:29.106Z,28.20
2022-11-14T22:48:56.491Z,28.40
2022-11-14T22:51:25.987Z,28.00
2022-11-14T22:53:55.085Z,28.10
2022-11-14T22:56:28.444Z,27.60
2022-11-14T22:58:56.358Z,27.50
2022-11-14T23:01:25.942Z,27.20
2022-11-14T23:03:55.554Z,27.00
2022-11-14T23:06:23.497Z,26.60
2022-11-14T23:08:51.715Z,26.30
2022-11-14T23:11:24.650Z,26.50
2022-11-14T23:13:54.141Z,26.60
2022-11-14T23:16:26.365Z,26.30
2022-11-14T23:18:55.398Z,26.00
2022-11-14T23:21:35.085Z,25.80
2022-11-14T23:24:05.254Z,26.10
2022-11-14T23:26:33.112Z,26.70
2022-11-14T23:29:00.847Z,27.20
2022-11-14T23:31:28.144Z,27.60
2022-11-14T23:33:58.241Z,27.50
2022-11-14T23:36:25.703Z,27.30
2022-11-14T23:38:53.612Z,27.00
2022-11-14T23:41:23.531Z,27.10
2022-11-14T23:43:50.539Z,27.30
2022-11-14T23:46:17.603Z,27.10
2022-11-14T23:48:44.626Z,27.60
2022-11-14T23:51:13.817Z,27.60
2022-11-14T23:53:41.247Z,27.70
2022-11-14T23:56:12.816Z,27.10
2022-11-14T23:58:40.497Z,27.60
